Ellensburg, Washington
Current Conditions -  °F | °C
As of 1:53 AM on Friday 24 Oct 2014 (Local Time) from KELN Reporting Station
Overcast Overcast  
Wind Chill: 40°   Ceiling: 7500
Heat Index: 43°   Visibility: 10mi
Dew Point: 37°   Wind: 5mph
Humidity: 80%   Direction: 110°ESE
Pressure: 30.02"   Gusts: NA
Location:  47°N, 120.54°W
Report Text: KELN 240853Z AUTO 11004KT 10SM OVC075 06/03 A3002 RMK AO2 SLP169 T00610028 51012
Loading
Personal Weather Stations






























Interactive Weather Map
Tropical Storm Tracking
New forecast layout! Learn more

10-Day Weather Forecast

Advertisements
Track Severe Weather on mobile